KEFD

Ellington Airport

Houston, Texas, USA
METAR KEFD 230950Z 00000KT 10SM FEW015 FEW250 22/21 A2997
Observed Flight Rules
May-23 @ 09:50 UTC (an hour ago) Visual Flight Rules
Visibility Clouds
10 miles
  • Few at 1,500' AGL
  • Few at 25,000' AGL
Temperatures Readings
Current 22°C / 72°F
Dewpoint 21°C / 70°F
Humidity 94%
Altimeter 29.97" Hg
Pressure 1015 hPa
Elevation 10
METAR KEFD 230950Z 00000KT 10SM FEW015 FEW250 22/21 A2997
Observed Flight Rules
May-23 @ 09:50 UTC
(an hour ago)
VFR
Clouds
  • Few at 1,500' AGL
  • Few at 25,000' AGL
Temperature Dewpoint
22°C / 72°F 21°C / 70°F
Humidity Altimeter Pressure
94% 29.97" Hg 1015 hPa